Time;durP1;ratioP1;P1;durP2;ratioP2;P2;SDS_P1;SDS_P2;PMS_P1;PMS_P2;Temp;Humidity;BMP_temperature;BMP_pressure;BME280_temperature;BME280_humidity;BME280_pressure;Samples;Min_cycle;Max_cycle;Signal;HPM_P1;HPM_P2
2023/02/18 00:01:37;;;;;;;0.10;0.10;;;;;;;;;;6143018;23;20062;-93
2023/02/18 00:04:06;;;;;;;0.10;0.10;;;7.90;99.90;;;;;;6144185;23;20026;-92
2023/02/18 00:06:33;;;;;;;0.10;0.10;;;8.00;99.90;;;;;;6143469;23;20036;-94
2023/02/18 00:09:11;;;;;;;0.10;0.10;;;7.90;99.90;;;;;;6120548;23;20050;-94
2023/02/18 00:11:40;;;;;;;0.10;0.10;;;7.90;99.90;;;;;;6142517;23;20078;-95
2023/02/18 00:14:14;;;;;;;0.08;0.08;;;7.80;99.90;;;;;;6144110;23;19990;-93
2023/02/18 00:16:46;;;;;;;0.10;0.10;;;7.80;99.90;;;;;;6142332;23;20004;-95
2023/02/18 00:19:24;;;;;;;0.10;0.10;;;7.70;99.90;;;;;;6143281;23;20014;-93
2023/02/18 00:21:52;;;;;;;0.10;0.10;;;;;;;;;;6142351;23;20006;-94
2023/02/18 00:24:21;;;;;;;0.10;0.10;;;;;;;;;;6142959;23;20006;-95
2023/02/18 00:26:50;;;;;;;0.10;0.10;;;7.70;99.90;;;;;;6144639;23;19978;-94
2023/02/18 00:29:20;;;;;;;0.10;0.10;;;;;;;;;;6143214;23;20006;-93
2023/02/18 00:31:46;;;;;;;0.10;0.10;;;;;;;;;;6142958;23;20252;-94
2023/02/18 00:34:12;;;;;;;0.10;0.10;;;;;;;;;;6144174;23;20050;-93
2023/02/18 00:36:38;;;;;;;0.10;0.10;;;;;;;;;;6142934;23;20018;-94
2023/02/18 00:39:07;;;;;;;0.10;0.10;;;7.70;99.90;;;;;;6144290;23;19998;-95
2023/02/18 00:41:39;;;;;;;0.10;0.10;;;7.60;99.90;;;;;;6143518;23;20042;-95
2023/02/18 00:44:08;;;;;;;0.10;0.10;;;;;;;;;;6143870;23;20006;-94
2023/02/18 00:46:43;;;;;;;0.10;0.10;;;7.70;99.90;;;;;;6141509;23;19990;-93
2023/02/18 00:49:11;;;;;;;0.10;0.10;;;7.70;99.90;;;;;;6142032;23;20010;-94
2023/02/18 00:51:42;;;;;;;0.10;0.10;;;7.80;99.90;;;;;;6117083;23;20018;-94
2023/02/18 00:54:13;;;;;;;0.10;0.10;;;7.90;99.90;;;;;;6142660;23;20006;-93
2023/02/18 00:56:43;;;;;;;0.10;0.10;;;7.90;99.90;;;;;;6142213;23;20010;-95
2023/02/18 00:59:12;;;;;;;0.10;0.10;;;8.10;99.90;;;;;;6118727;23;20010;-93
2023/02/18 01:01:37;;;;;;;0.10;0.10;;;;;;;;;;6140200;23;20001;-94
2023/02/18 01:04:04;;;;;;;0.10;0.10;;;;;;;;;;6143882;23;20440;-92
2023/02/18 01:06:30;;;;;;;0.10;0.10;;;;;;;;;;6143611;23;20067;-93
2023/02/18 01:09:01;;;;;;;0.10;0.10;;;8.20;99.90;;;;;;6143557;23;20007;-95
2023/02/18 01:11:27;;;;;;;0.10;0.10;;;;;;;;;;6142404;23;19983;-91
2023/02/18 01:13:53;;;;;;;0.10;0.10;;;;;;;;;;6143431;23;20006;-93
2023/02/18 01:16:32;;;;;;;0.10;0.10;;;8.30;99.90;;;;;;6143077;23;20014;-92
2023/02/18 01:19:16;;;;;;;0.10;0.10;;;;;;;;;;6118468;23;20002;-92
2023/02/18 01:21:42;;;;;;;0.10;0.10;;;;;;;;;;6144088;23;20026;-92
2023/02/18 01:24:17;;;;;;;0.10;0.10;;;8.40;99.90;;;;;;6142942;23;20014;-91
2023/02/18 01:26:43;;;;;;;0.10;0.10;;;;;;;;;;6119293;23;19994;-93
2023/02/18 01:29:31;;;;;;;0.10;0.10;;;8.50;99.90;;;;;;6144380;23;20013;-91
2023/02/18 01:31:57;;;;;;;0.10;0.10;;;;;;;;;;6117598;23;20042;-91
2023/02/18 01:34:23;;;;;;;0.10;0.10;;;;;;;;;;6144983;23;20010;-94
2023/02/18 01:36:49;;;;;;;0.10;0.10;;;;;;;;;;6143488;23;20101;-92
2023/02/18 01:39:15;;;;;;;0.10;0.10;;;;;;;;;;6144269;23;20005;-93
2023/02/18 01:41:41;;;;;;;0.10;0.10;;;;;;;;;;6142080;23;20041;-90
2023/02/18 01:44:20;;;;;;;0.10;0.10;;;8.70;99.90;;;;;;6142146;23;19990;-93
2023/02/18 01:46:46;;;;;;;0.10;0.10;;;;;;;;;;6142766;23;20038;-92
2023/02/18 01:49:31;;;;;;;0.10;0.10;;;8.80;99.90;;;;;;6144652;23;20002;-94
2023/02/18 01:52:18;;;;;;;0.10;0.10;;;8.90;99.90;;;;;;6143298;23;20002;-93
2023/02/18 01:54:50;;;;;;;0.08;0.08;;;8.90;99.90;;;;;;6117695;23;20002;-92
2023/02/18 01:57:23;;;;;;;0.10;0.10;;;8.90;99.90;;;;;;6145656;23;19999;-91
2023/02/18 02:00:11;;;;;;;0.10;0.10;;;9.00;99.90;;;;;;6142905;23;20042;-91
2023/02/18 02:02:41;;;;;;;0.10;0.10;;;8.90;99.90;;;;;;6119363;23;19994;-92
2023/02/18 02:05:07;;;;;;;0.00;0.00;;;;;;;;;;6146131;23;20099;-93
2023/02/18 02:07:33;;;;;;;0.00;0.00;;;;;;;;;;6145228;23;19998;-93
2023/02/18 02:09:59;;;;;;;0.10;0.10;;;9.00;99.90;;;;;;6145736;23;20002;-91
2023/02/18 02:13:04;;;;;;;0.10;0.10;;;9.10;99.90;;;;;;6146631;23;20006;-91
2023/02/18 02:15:52;;;;;;;0.10;0.10;;;9.10;99.90;;;;;;6145076;23;20010;-89
2023/02/18 02:18:33;;;;;;;0.10;0.10;;;9.10;99.90;;;;;;6147192;23;20042;-92
2023/02/18 02:21:33;;;;;;;0.00;0.00;;;9.10;99.90;;;;;;6146904;23;20002;-91
2023/02/18 02:24:05;;;;;;;0.10;0.10;;;9.10;99.90;;;;;;6144931;23;20010;-93
2023/02/18 02:27:08;;;;;;;0.10;0.10;;;9.10;99.90;;;;;;6146900;23;19991;-89
2023/02/18 02:29:42;;;;;;;0.10;0.10;;;9.20;99.90;;;;;;6145694;23;19994;-92
2023/02/18 02:32:54;;;;;;;0.10;0.10;;;9.00;99.90;;;;;;6145859;23;20009;-91
2023/02/18 02:35:31;;;;;;;0.00;0.00;;;9.20;99.90;;;;;;6145391;23;20011;-91
2023/02/18 02:38:35;;;;;;;0.10;0.10;;;9.20;99.90;;;;;;6145371;23;19989;-92
2023/02/18 02:41:06;;;;;;;0.10;0.10;;;;;;;;;;6103516;23;20042;-92
2023/02/18 02:44:14;;;;;;;0.08;0.08;;;9.20;99.90;;;;;;6146905;23;19994;-91
2023/02/18 02:46:46;;;;;;;0.10;0.10;;;9.20;99.90;;;;;;6144987;23;19986;-90
2023/02/18 02:49:31;;;;;;;0.10;0.10;;;9.20;99.90;;;;;;6121101;23;20022;-89
2023/02/18 02:52:06;;;;;;;0.10;0.10;;;9.30;99.90;;;;;;6118918;23;19991;-92
2023/02/18 02:54:32;;;;;;;0.10;0.10;;;;;;;;;;6146017;23;20054;-92
2023/02/18 02:57:07;;;;;;;0.00;0.00;;;9.40;99.90;;;;;;6147145;23;19998;-88
2023/02/18 02:59:36;;;;;;;0.00;0.00;;;9.50;99.90;;;;;;6146788;23;20016;-92
2023/02/18 03:02:17;;;;;;;0.10;0.10;;;9.30;99.90;;;;;;6121533;23;19990;-93
2023/02/18 03:04:59;;;;;;;0.00;0.00;;;9.40;99.90;;;;;;6146008;23;19999;-91
2023/02/18 03:08:04;;;;;;;0.00;0.00;;;8.90;99.90;;;;;;6146359;23;20020;-94
2023/02/18 03:10:32;;;;;;;0.00;0.00;;;9.30;99.90;;;;;;6145664;23;20021;-90
2023/02/18 03:13:28;;;;;;;0.00;0.00;;;9.40;99.90;;;;;;6147781;23;19999;-94
2023/02/18 03:16:23;;;;;;;0.00;0.00;;;9.50;99.90;;;;;;6119675;23;20046;-91
2023/02/18 03:18:58;;;;;;;0.00;0.00;;;9.50;99.90;;;;;;6121706;23;19986;-90
2023/02/18 03:21:36;;;;;;;0.10;0.10;;;9.40;99.90;;;;;;6121445;23;20010;-92
2023/02/18 03:24:25;;;;;;;0.10;0.10;;;9.50;99.90;;;;;;6144099;23;20029;-93
2023/02/18 03:26:56;;;;;;;0.10;0.10;;;9.60;99.90;;;;;;6103140;23;20006;-90
2023/02/18 03:29:36;;;;;;;0.00;0.00;;;9.60;99.90;;;;;;6119693;23;20007;-91
2023/02/18 03:32:06;;;;;;;0.10;0.10;;;9.50;99.90;;;;;;6118995;23;20009;-91
2023/02/18 03:34:38;;;;;;;0.10;0.10;;;9.60;99.90;;;;;;6142185;23;19987;-91
2023/02/18 03:37:04;;;;;;;0.03;0.03;;;9.60;99.90;;;;;;6144942;23;20026;-90
2023/02/18 03:39:34;;;;;;;0.00;0.00;;;9.60;99.90;;;;;;6143285;23;20011;-94
2023/02/18 03:42:00;;;;;;;0.10;0.10;;;;;;;;;;6145286;23;20007;-92
2023/02/18 03:44:26;;;;;;;0.10;0.10;;;;;;;;;;6144731;23;20062;-92
2023/02/18 03:46:52;;;;;;;0.00;0.00;;;;;;;;;;6143329;23;20026;-94
2023/02/18 03:49:18;;;;;;;0.00;0.00;;;;;;;;;;6145435;23;20025;-90
2023/02/18 03:51:46;;;;;;;0.00;0.00;;;;;;;;;;6143534;23;20009;-90
2023/02/18 03:54:13;;;;;;;0.10;0.10;;;;;;;;;;6145024;23;19998;-91
2023/02/18 03:56:39;;;;;;;0.10;0.10;;;;;;;;;;6145068;23;20018;-92
2023/02/18 03:59:05;;;;;;;0.00;0.00;;;;;;;;;;6145285;23;19998;-93
2023/02/18 04:01:34;;;;;;;0.10;0.10;;;;;;;;;;6144251;23;20010;-91
2023/02/18 04:04:01;;;;;;;0.00;0.00;;;;;;;;;;6144313;23;20099;-91
2023/02/18 04:06:27;;;;;;;0.10;0.10;;;;;;;;;;6140886;23;20037;-93
2023/02/18 04:08:53;;;;;;;0.10;0.10;;;;;;;;;;6143924;23;20011;-93
2023/02/18 04:11:19;;;;;;;0.00;0.00;;;9.90;99.90;;;;;;6143869;23;20034;-92
2023/02/18 04:13:45;;;;;;;0.10;0.10;;;;;;;;;;6143256;23;20019;-91
2023/02/18 04:16:13;;;;;;;0.00;0.00;;;;;;;;;;6143928;23;20007;-91
2023/02/18 04:18:39;;;;;;;0.00;0.00;;;;;;;;;;6144191;23;20002;-91
2023/02/18 04:21:05;;;;;;;0.00;0.00;;;;;;;;;;6142587;23;20021;-94
2023/02/18 04:23:31;;;;;;;0.00;0.00;;;;;;;;;;6143977;23;20017;-89
2023/02/18 04:25:56;;;;;;;0.00;0.00;;;10.00;99.90;;;;;;6143756;23;20069;-92
2023/02/18 04:28:22;;;;;;;0.00;0.00;;;;;;;;;;6143312;23;19986;-91
2023/02/18 04:30:48;;;;;;;0.00;0.00;;;9.80;99.90;;;;;;6141631;23;20030;-92
2023/02/18 04:33:14;;;;;;;0.00;0.00;;;9.80;99.90;;;;;;6144700;23;20010;-94
2023/02/18 04:35:40;;;;;;;0.10;0.10;;;;;;;;;;6143006;23;20063;-93
2023/02/18 04:38:07;;;;;;;0.10;0.10;;;9.90;99.90;;;;;;6143106;23;20015;-92
2023/02/18 04:40:33;;;;;;;0.00;0.00;;;;;;;;;;6144141;23;20010;-91
2023/02/18 04:43:00;;;;;;;0.00;0.00;;;;;;;;;;6143634;23;19994;-92
2023/02/18 04:45:26;;;;;;;0.08;0.08;;;10.00;99.90;;;;;;6142511;23;20066;-94
2023/02/18 04:47:52;;;;;;;0.00;0.00;;;;;;;;;;6139698;23;20066;-91
2023/02/18 04:50:18;;;;;;;0.00;0.00;;;;;;;;;;6140790;23;20625;-93
2023/02/18 04:52:44;;;;;;;0.00;0.00;;;;;;;;;;6142662;23;20042;-92
2023/02/18 04:55:10;;;;;;;0.05;0.05;;;;;;;;;;6143128;23;20002;-91
2023/02/18 04:57:36;;;;;;;0.00;0.00;;;;;;;;;;6144276;23;20071;-91
2023/02/18 05:00:05;;;;;;;0.00;0.00;;;10.10;99.90;;;;;;6143936;23;20007;-91
2023/02/18 05:02:31;;;;;;;0.00;0.00;;;;;;;;;;6143233;23;20444;-94
2023/02/18 05:04:57;;;;;;;0.00;0.00;;;10.10;99.90;;;;;;6144348;23;20250;-93
2023/02/18 05:07:23;;;;;;;0.00;0.00;;;;;;;;;;6144059;23;20038;-92
2023/02/18 05:09:48;;;;;;;0.00;0.00;;;10.10;99.90;;;;;;6144148;23;20011;-93
2023/02/18 05:12:14;;;;;;;0.00;0.00;;;;;;;;;;6144360;23;20002;-93
2023/02/18 05:14:40;;;;;;;0.00;0.00;;;;;;;;;;6142819;23;20002;-93
2023/02/18 05:17:05;;;;;;;0.00;0.00;;;10.10;99.90;;;;;;6143034;23;19998;-92
2023/02/18 05:19:31;;;;;;;0.00;0.00;;;;;;;;;;6143387;23;19998;-91
2023/02/18 05:21:57;;;;;;;0.00;0.00;;;;;;;;;;6143947;23;20002;-92
2023/02/18 05:24:23;;;;;;;0.00;0.00;;;;;;;;;;6144549;23;20097;-91
2023/02/18 05:26:49;;;;;;;0.05;0.05;;;;;;;;;;6143381;23;20006;-94
2023/02/18 05:29:16;;;;;;;0.00;0.00;;;;;;;;;;6143910;23;19995;-93
2023/02/18 05:31:42;;;;;;;0.03;0.03;;;;;;;;;;6144360;23;19986;-91
2023/02/18 05:34:07;;;;;;;0.00;0.00;;;;;;;;;;6144325;23;19987;-92
2023/02/18 05:36:33;;;;;;;0.00;0.00;;;;;;;;;;6143732;23;20050;-91
2023/02/18 05:38:59;;;;;;;0.10;0.10;;;;;;;;;;6143597;23;20002;-92
2023/02/18 05:41:25;;;;;;;0.00;0.00;;;;;;;;;;6144855;23;20062;-92
2023/02/18 05:46:35;;;;;;;0.00;0.00;;;10.30;99.90;;;;;;6119323;23;20078;-91
2023/02/18 05:49:01;;;;;;;0.00;0.00;;;11.50;99.90;;;;;;6143325;23;20018;-91
2023/02/18 05:51:27;;;;;;;0.00;0.00;;;;;;;;;;6144346;23;19998;-91
2023/02/18 05:53:54;;;;;;;0.00;0.00;;;;;;;;;;6145730;23;20259;-91
2023/02/18 05:56:20;;;;;;;0.00;0.00;;;;;;;;;;6144007;23;20010;-90
2023/02/18 05:58:46;;;;;;;0.00;0.00;;;;;;;;;;6144094;23;20014;-93
2023/02/18 06:01:12;;;;;;;0.00;0.00;;;;;;;;;;6141549;23;20006;-91
2023/02/18 06:03:38;;;;;;;0.00;0.00;;;;;;;;;;6141598;23;20007;-92
2023/02/18 06:06:04;;;;;;;0.00;0.00;;;;;;;;;;6145202;23;20018;-93
2023/02/18 06:08:30;;;;;;;0.00;0.00;;;;;;;;;;6143220;23;20014;-93
2023/02/18 06:10:56;;;;;;;0.00;0.00;;;;;;;;;;6144126;23;20002;-92
2023/02/18 06:13:22;;;;;;;0.00;0.00;;;10.50;99.90;;;;;;6145231;23;20034;-92
2023/02/18 06:15:50;;;;;;;0.00;0.00;;;10.50;99.90;;;;;;6143209;23;20089;-94
2023/02/18 06:18:16;;;;;;;0.10;0.10;;;;;;;;;;6144785;23;20002;-93
2023/02/18 06:20:42;;;;;;;0.00;0.00;;;;;;;;;;6142365;23;19997;-94
2023/02/18 06:23:08;;;;;;;0.10;0.10;;;;;;;;;;6143540;23;19995;-92
2023/02/18 06:25:34;;;;;;;0.00;0.00;;;;;;;;;;6142500;23;20036;-90
2023/02/18 06:28:00;;;;;;;0.00;0.00;;;;;;;;;;6142287;23;20002;-92
2023/02/18 06:30:26;;;;;;;0.00;0.00;;;;;;;;;;6143573;23;19999;-90
2023/02/18 06:32:52;;;;;;;0.00;0.00;;;;;;;;;;6145060;23;20046;-93
2023/02/18 06:35:18;;;;;;;0.00;0.00;;;;;;;;;;6144495;23;19991;-91
2023/02/18 06:37:44;;;;;;;0.00;0.00;;;10.60;99.90;;;;;;6144441;23;20002;-91
2023/02/18 06:40:10;;;;;;;0.00;0.00;;;;;;;;;;6144182;23;20022;-92
2023/02/18 06:42:36;;;;;;;0.00;0.00;;;10.60;99.90;;;;;;6143980;23;20003;-90
2023/02/18 06:45:01;;;;;;;0.00;0.00;;;10.70;99.90;;;;;;6145282;23;20006;-94
2023/02/18 06:47:27;;;;;;;0.00;0.00;;;11.10;99.90;;;;;;6143347;23;20033;-91
2023/02/18 06:49:52;;;;;;;0.00;0.00;;;10.60;99.90;;;;;;6143617;23;20037;-90
2023/02/18 07:12:59;;;;;;;0.00;0.00;;;;;;;;;;6137380;23;20025;-91
2023/02/18 07:15:26;;;;;;;0.00;0.00;;;;;;;;;;6137540;23;20014;-91
2023/02/18 07:17:53;;;;;;;0.00;0.00;;;;;;;;;;6135359;23;20501;-91
2023/02/18 07:20:19;;;;;;;0.10;0.10;;;10.80;99.90;;;;;;6133183;23;20017;-92
2023/02/18 07:22:45;;;;;;;0.00;0.00;;;;;;;;;;6136668;23;20030;-92
2023/02/18 07:25:11;;;;;;;0.00;0.00;;;;;;;;;;6138369;23;19998;-92
2023/02/18 07:27:37;;;;;;;0.00;0.00;;;;;;;;;;6138988;23;20070;-91
2023/02/18 07:30:03;;;;;;;0.00;0.00;;;;;;;;;;6138097;23;20012;-92
2023/02/18 07:32:29;;;;;;;0.05;0.05;;;;;;;;;;6137634;23;20021;-91
2023/02/18 07:34:55;;;;;;;0.00;0.00;;;;;;;;;;6132434;23;20013;-91
2023/02/18 07:37:21;;;;;;;0.00;0.00;;;;;;;;;;6132682;23;20053;-91
2023/02/18 07:39:47;;;;;;;0.00;0.00;;;;;;;;;;6132958;23;20355;-92
2023/02/18 07:42:13;;;;;;;0.10;0.10;;;;;;;;;;6133587;23;20002;-92
2023/02/18 07:44:39;;;;;;;0.00;0.00;;;10.70;99.90;;;;;;6133003;23;20033;-92
2023/02/18 07:47:07;;;;;;;0.00;0.00;;;10.80;99.90;;;;;;6134871;23;20431;-91
2023/02/18 07:49:36;;;;;;;0.00;0.00;;;10.70;99.90;;;;;;6132958;23;20006;-91
2023/02/18 07:52:02;;;;;;;0.00;0.00;;;;;;;;;;6132235;23;20069;-89
2023/02/18 07:54:28;;;;;;;0.00;0.00;;;;;;;;;;6123720;23;20443;-88
2023/02/18 07:56:54;;;;;;;0.00;0.00;;;;;;;;;;6128944;23;20833;-93
2023/02/18 07:59:20;;;;;;;0.00;0.00;;;;;;;;;;6132767;23;20002;-91
2023/02/18 08:38:13;;;;;;;0.00;0.00;;;;;;;;;;6100058;23;20459;-92
2023/02/18 08:40:40;;;;;;;0.00;0.00;;;;;;;;;;6099440;23;20093;-92
2023/02/18 08:43:06;;;;;;;0.00;0.00;;;;;;;;;;6100190;23;20347;-93
2023/02/18 08:45:32;;;;;;;0.00;0.00;;;11.00;99.90;;;;;;6074911;23;20041;-93
2023/02/18 08:51:35;;;;;;;0.10;0.10;;;;;;;;;;6063741;23;20025;-91
2023/02/18 08:54:03;;;;;;;0.10;0.10;;;11.10;99.90;;;;;;6080023;23;20447;-92
2023/02/18 08:56:38;;;;;;;0.00;0.00;;;11.10;99.90;;;;;;6099309;23;20097;-92
2023/02/18 08:59:04;;;;;;;0.00;0.00;;;;;;;;;;6100124;23;20006;-92
2023/02/18 09:01:30;;;;;;;0.00;0.00;;;;;;;;;;6074467;23;20011;-93
2023/02/18 09:03:56;;;;;;;0.00;0.00;;;;;;;;;;6071781;23;20038;-92
2023/02/18 09:06:23;;;;;;;0.10;0.10;;;;;;;;;;6075842;23;20014;-92
2023/02/18 09:12:09;;;;;;;0.10;0.10;;;;;;;;;;6049864;23;20017;-92
2023/02/18 09:14:51;;;;;;;0.08;0.08;;;11.10;99.90;;;;;;6070850;23;20006;-92
2023/02/18 09:17:17;;;;;;;0.00;0.00;;;;;;;;;;6093759;23;20058;-91
2023/02/18 09:19:43;;;;;;;0.00;0.00;;;;;;;;;;6070633;23;20010;-91
2023/02/18 09:22:09;;;;;;;0.00;0.00;;;;;;;;;;6069757;23;20033;-94
2023/02/18 09:24:39;;;;;;;0.00;0.00;;;11.20;99.90;;;;;;6071247;23;20022;-92
2023/02/18 09:27:05;;;;;;;0.00;0.00;;;;;;;;;;6096056;23;20011;-92
2023/02/18 09:29:31;;;;;;;0.00;0.00;;;;;;;;;;6071703;23;20045;-91
2023/02/18 09:32:00;;;;;;;0.00;0.00;;;11.30;99.90;;;;;;6069875;23;20432;-92
2023/02/18 09:34:26;;;;;;;0.10;0.10;;;;;;;;;;6096198;23;20009;-91
2023/02/18 09:36:52;;;;;;;0.00;0.00;;;;;;;;;;6069968;23;20043;-92
2023/02/18 09:39:18;;;;;;;0.00;0.00;;;;;;;;;;6071280;23;20010;-92
2023/02/18 09:41:48;;;;;;;0.00;0.00;;;11.40;99.90;;;;;;6072405;23;20010;-91
2023/02/18 09:44:37;;;;;;;0.00;0.00;;;11.30;99.90;;;;;;6097112;23;20014;-91
2023/02/18 09:47:03;;;;;;;0.00;0.00;;;;;;;;;;6095064;23;20014;-92
2023/02/18 09:49:36;;;;;;;0.00;0.00;;;11.30;99.90;;;;;;6072412;23;20077;-91
2023/02/18 09:52:17;;;;;;;0.08;0.08;;;11.30;99.90;;;;;;6093777;23;20444;-90
2023/02/18 09:55:04;;;;;;;0.00;0.00;;;11.30;99.90;;;;;;6095789;23;20006;-92
2023/02/18 09:58:00;;;;;;;0.00;0.00;;;11.40;99.90;;;;;;6071966;23;20008;-93
2023/02/18 10:01:55;;;;;;;0.00;0.00;;;11.30;99.90;;;;;;6096478;23;20030;-93
2023/02/18 10:04:28;;;;;;;0.00;0.00;;;11.40;99.90;;;;;;5977739;24;20035;-90
2023/02/18 10:06:56;;;;;;;0.00;0.00;;;11.40;99.90;;;;;;5988027;23;20010;-92
2023/02/18 10:09:31;;;;;;;0.10;0.10;;;11.20;99.90;;;;;;6091811;23;20006;-91
2023/02/18 10:12:10;;;;;;;0.00;0.00;;;11.40;99.90;;;;;;6093743;23;20006;-92
2023/02/18 10:14:36;;;;;;;0.00;0.00;;;;;;;;;;6093395;23;20053;-90
2023/02/18 10:17:02;;;;;;;0.00;0.00;;;;;;;;;;6068962;23;20428;-91
2023/02/18 10:19:39;;;;;;;0.00;0.00;;;11.30;99.90;;;;;;6070598;23;20006;-92
2023/02/18 10:22:08;;;;;;;0.00;0.00;;;11.40;99.90;;;;;;6093070;23;20353;-92
2023/02/18 10:24:50;;;;;;;0.00;0.00;;;11.30;99.90;;;;;;6094091;23;20011;-92
2023/02/18 10:27:30;;;;;;;0.00;0.00;;;11.50;99.90;;;;;;6070802;23;20097;-91
2023/02/18 10:30:19;;;;;;;0.00;0.00;;;11.60;99.90;;;;;;6095183;23;20510;-92
2023/02/18 10:32:47;;;;;;;0.00;0.00;;;11.60;99.90;;;;;;6094627;23;20027;-92
2023/02/18 10:35:22;;;;;;;0.00;0.00;;;11.60;99.90;;;;;;6095841;23;20017;-92
2023/02/18 10:38:05;;;;;;;0.00;0.00;;;11.40;99.90;;;;;;6095743;23;20034;-92
2023/02/18 10:41:01;;;;;;;0.03;0.03;;;11.40;99.90;;;;;;6095442;23;20564;-91
2023/02/18 10:43:33;;;;;;;0.00;0.00;;;11.10;99.90;;;;;;6031327;23;20010;-92
2023/02/18 10:46:45;;;;;;;0.00;0.00;;;11.40;99.90;;;;;;6071187;23;20414;-92
2023/02/18 10:49:39;;;;;;;0.00;0.00;;;11.40;99.90;;;;;;6065841;23;20006;-92
2023/02/18 10:52:09;;;;;;;0.00;0.00;;;11.50;99.90;;;;;;6073457;23;20086;-93
2023/02/18 10:55:09;;;;;;;0.00;0.00;;;11.50;99.90;;;;;;6097262;23;19998;-92
2023/02/18 10:57:44;;;;;;;;;;;11.40;99.90;;;;;;6014151;23;20065;-93
2023/02/18 11:00:22;;;;;;;0.00;0.00;;;11.20;99.90;;;;;;6095678;23;19902;-93
2023/02/18 11:03:13;;;;;;;0.00;0.00;;;11.20;99.90;;;;;;6093747;23;20030;-92
2023/02/18 11:05:40;;;;;;;0.00;0.00;;;11.10;99.90;;;;;;6094988;23;20090;-93
2023/02/18 11:08:09;;;;;;;0.00;0.00;;;11.10;99.90;;;;;;6097737;23;20006;-94
2023/02/18 11:10:39;;;;;;;0.00;0.00;;;11.10;99.90;;;;;;6095556;23;20018;-91
2023/02/18 11:13:07;;;;;;;0.00;0.00;;;11.10;99.90;;;;;;6094857;23;20002;-93
2023/02/18 11:15:34;;;;;;;0.00;0.00;;;;;;;;;;6095528;23;20313;-92
2023/02/18 11:18:25;;;;;;;0.00;0.00;;;11.10;99.90;;;;;;6070227;23;20077;-92
2023/02/18 11:20:57;;;;;;;0.00;0.00;;;11.10;99.90;;;;;;6072752;23;20077;-92
2023/02/18 11:23:24;;;;;;;0.00;0.00;;;;;;;;;;6091191;23;20309;-93
2023/02/18 11:26:03;;;;;;;0.00;0.00;;;11.00;99.90;;;;;;6069759;23;20300;-93
2023/02/18 11:28:45;;;;;;;0.00;0.00;;;11.00;99.90;;;;;;6094882;23;20081;-93
2023/02/18 11:37:39;;;;;;;0.00;0.00;;;10.90;99.90;;;;;;6154405;23;20072;-91
2023/02/18 11:40:06;;;;;;;0.00;0.00;;;;;;;;;;6178620;23;20469;-91
2023/02/18 11:42:31;;;;;;;0.00;0.00;;;;;;;;;;6178432;23;20100;-91
2023/02/18 11:44:59;;;;;;;0.00;0.00;;;11.00;99.90;;;;;;6178709;23;20012;-92
2023/02/18 11:47:33;;;;;;;0.00;0.00;;;11.00;99.90;;;;;;6177058;23;20060;-92
2023/02/18 11:50:16;;;;;;;0.00;0.00;;;10.80;99.90;;;;;;6174412;23;20009;-92
2023/02/18 11:52:47;;;;;;;0.00;0.00;;;11.10;99.90;;;;;;6179578;23;20006;-93
2023/02/18 11:55:19;;;;;;;0.00;0.00;;;11.00;99.90;;;;;;6175889;23;20032;-93
2023/02/18 11:57:57;;;;;;;0.00;0.00;;;11.00;99.90;;;;;;6178620;23;20076;-93
2023/02/18 12:00:41;;;;;;;0.00;0.00;;;11.00;99.90;;;;;;6175216;23;20009;-92
2023/02/18 12:03:37;;;;;;;0.00;0.00;;;11.00;99.90;;;;;;6179834;23;20009;-92
2023/02/18 12:06:12;;;;;;;0.00;0.00;;;11.00;99.90;;;;;;6176848;23;20009;-93
2023/02/18 12:08:48;;;;;;;0.10;0.10;;;10.90;99.90;;;;;;6177871;23;20009;-91
2023/02/18 12:11:24;;;;;;;0.00;0.00;;;10.70;99.90;;;;;;6176732;23;20037;-92
2023/02/18 12:13:55;;;;;;;0.00;0.00;;;10.80;99.90;;;;;;6177866;23;20008;-93
2023/02/18 12:16:55;;;;;;;0.00;0.00;;;10.50;99.90;;;;;;6177809;23;20079;-93
2023/02/18 12:20:07;;;;;;;0.10;0.10;;;10.70;99.90;;;;;;6177610;23;20382;-94
2023/02/18 12:22:33;;;;;;;0.00;0.00;;;;;;;;;;6148225;23;20009;-92
2023/02/18 12:25:14;;;;;;;0.10;0.10;;;10.50;99.90;;;;;;6176794;23;20016;-93
2023/02/18 12:27:55;;;;;;;0.00;0.00;;;10.50;99.90;;;;;;6174478;23;20080;-92
2023/02/18 12:30:54;;;;;;;0.10;0.10;;;10.50;99.90;;;;;;6177482;23;20005;-92
2023/02/18 12:33:38;;;;;;;0.00;0.00;;;10.50;99.90;;;;;;6179189;23;20446;-93
2023/02/18 12:36:19;;;;;;;0.10;0.10;;;10.50;99.90;;;;;;6178531;23;20117;-91
2023/02/18 12:39:06;;;;;;;0.00;0.00;;;10.50;99.90;;;;;;6178808;23;20002;-93
2023/02/18 12:41:47;;;;;;;0.05;0.05;;;10.50;99.90;;;;;;6176264;23;20001;-93
2023/02/18 12:44:43;;;;;;;0.00;0.00;;;10.50;99.90;;;;;;6177723;23;20013;-93
2023/02/18 12:47:39;;;;;;;0.00;0.00;;;10.50;99.90;;;;;;6177970;23;20073;-93
2023/02/18 12:50:29;;;;;;;0.00;0.00;;;10.60;99.90;;;;;;6175993;23;20006;-92
2023/02/18 12:52:58;;;;;;;;;;;10.70;99.90;;;;;;6175580;23;20002;-91
2023/02/18 12:55:39;;;;;;;0.00;0.00;;;10.80;99.90;;;;;;6176198;23;19979;-92
2023/02/18 12:58:43;;;;;;;0.00;0.00;;;10.90;99.90;;;;;;6175645;23;20041;-91
2023/02/18 13:01:18;;;;;;;0.00;0.00;;;11.00;99.90;;;;;;6174587;23;20136;-92
2023/02/18 13:04:48;;;;;;;0.00;0.00;;;10.80;99.90;;;;;;6174043;23;20005;-92
2023/02/18 13:07:25;;;;;;;0.10;0.10;;;10.80;99.90;;;;;;6065924;23;20081;-93
2023/02/18 13:10:32;;;;;;;0.00;0.00;;;10.80;99.90;;;;;;6164099;23;20033;-92
2023/02/18 13:13:18;;;;;;;0.00;0.00;;;10.70;99.90;;;;;;6139281;23;20056;-92
2023/02/18 13:15:50;;;;;;;0.00;0.00;;;10.70;99.90;;;;;;6173980;23;20002;-92
2023/02/18 13:18:21;;;;;;;0.00;0.00;;;10.80;99.90;;;;;;6176068;23;20052;-92
2023/02/18 13:20:56;;;;;;;0.00;0.00;;;10.90;99.90;;;;;;6175479;23;20363;-92
2023/02/18 13:23:25;;;;;;;0.00;0.00;;;10.80;99.90;;;;;;6174814;23;20454;-93
2023/02/18 13:25:59;;;;;;;0.00;0.00;;;10.70;99.90;;;;;;6175056;23;20017;-91
2023/02/18 13:29:01;;;;;;;0.10;0.10;;;10.90;99.90;;;;;;6174815;23;20151;-91
2023/02/18 13:31:27;;;;;;;0.00;0.00;;;;;;;;;;6174229;23;20009;-91
2023/02/18 13:34:16;;;;;;;0.00;0.00;;;11.10;99.90;;;;;;6151368;23;20009;-92
2023/02/18 13:36:59;;;;;;;0.00;0.00;;;11.00;99.90;;;;;;6172324;23;20019;-91
2023/02/18 13:39:26;;;;;;;0.00;0.00;;;;;;;;;;6176523;23;20005;-92
2023/02/18 13:42:23;;;;;;;0.00;0.00;;;11.10;99.90;;;;;;6175087;23;20462;-91
2023/02/18 13:44:55;;;;;;;0.00;0.00;;;11.10;99.90;;;;;;6174306;23;20008;-91
2023/02/18 13:47:40;;;;;;;0.00;0.00;;;11.10;99.90;;;;;;6172690;23;20028;-92
2023/02/18 13:50:27;;;;;;;0.00;0.00;;;11.00;99.90;;;;;;6175252;23;20147;-92
2023/02/18 13:53:08;;;;;;;0.00;0.00;;;10.80;99.90;;;;;;6174024;23;20021;-91
2023/02/18 13:55:39;;;;;;;0.10;0.10;;;10.80;99.90;;;;;;6175702;23;20008;-91
2023/02/18 13:58:14;;;;;;;0.00;0.00;;;10.80;99.90;;;;;;6174347;23;20005;-93
2023/02/18 14:00:45;;;;;;;0.00;0.00;;;10.70;99.90;;;;;;6175348;23;20013;-92
2023/02/18 14:03:32;;;;;;;0.00;0.00;;;10.70;99.90;;;;;;6173508;23;20106;-92
2023/02/18 14:05:58;;;;;;;0.00;0.00;;;10.70;99.90;;;;;;6171609;23;20009;-92
2023/02/18 14:08:37;;;;;;;0.00;0.00;;;10.70;99.90;;;;;;6172006;23;20097;-91
2023/02/18 14:11:12;;;;;;;0.10;0.10;;;10.70;99.90;;;;;;6173779;23;20013;-92
2023/02/18 14:13:40;;;;;;;0.00;0.00;;;10.70;99.90;;;;;;6174693;23;20008;-91
2023/02/18 14:16:07;;;;;;;0.00;0.00;;;;;;;;;;6173648;23;20465;-92
2023/02/18 14:18:54;;;;;;;0.00;0.00;;;10.70;99.90;;;;;;6175512;23;20013;-91
2023/02/18 14:21:34;;;;;;;0.00;0.00;;;10.50;99.90;;;;;;6178469;23;20431;-91
2023/02/18 14:24:01;;;;;;;;;;;10.80;99.90;;;;;;6175579;23;20016;-92
2023/02/18 14:26:32;;;;;;;0.10;0.10;;;10.70;99.90;;;;;;6177045;23;19900;-92
2023/02/18 14:29:04;;;;;;;0.10;0.10;;;10.70;99.90;;;;;;6176850;23;20005;-92
2023/02/18 14:31:54;;;;;;;0.00;0.00;;;10.50;99.90;;;;;;6177172;23;20013;-92
2023/02/18 14:34:37;;;;;;;0.00;0.00;;;10.70;99.90;;;;;;6176916;23;20005;-92
2023/02/18 14:37:23;;;;;;;0.00;0.00;;;10.70;99.90;;;;;;6177225;23;20048;-92
2023/02/18 14:40:15;;;;;;;0.00;0.00;;;12.40;99.90;;;;;;6177561;23;20001;-92
2023/02/18 14:42:56;;;;;;;0.00;0.00;;;10.70;99.90;;;;;;6177757;23;20008;-92
2023/02/18 14:45:51;;;;;;;0.00;0.00;;;10.80;99.90;;;;;;6178140;23;20001;-93
2023/02/18 14:48:43;;;;;;;0.00;0.00;;;10.80;99.90;;;;;;6177932;23;20084;-93
2023/02/18 14:51:13;;;;;;;0.00;0.00;;;10.80;99.90;;;;;;6177383;23;20370;-91
2023/02/18 14:53:42;;;;;;;0.00;0.00;;;10.90;99.90;;;;;;6177418;23;20001;-92
2023/02/18 14:56:12;;;;;;;0.00;0.00;;;10.90;99.90;;;;;;6177499;23;20029;-91
2023/02/18 14:58:41;;;;;;;0.07;0.07;;;12.30;99.90;;;;;;6177367;23;20032;-92
2023/02/18 15:01:20;;;;;;;0.00;0.00;;;10.90;99.90;;;;;;6176817;23;20009;-92
2023/02/18 15:03:48;;;;;;;0.10;0.10;;;10.80;99.90;;;;;;6176615;23;20002;-91
2023/02/18 15:06:34;;;;;;;0.00;0.00;;;10.80;99.90;;;;;;6176133;23;20469;-89
2023/02/18 15:09:11;;;;;;;0.00;0.00;;;10.80;99.90;;;;;;6176300;23;20005;-92
2023/02/18 15:11:41;;;;;;;0.00;0.00;;;10.50;99.90;;;;;;6177026;23;20298;-91
2023/02/18 15:14:25;;;;;;;0.00;0.00;;;10.70;99.90;;;;;;6177631;23;20005;-92
2023/02/18 15:16:51;;;;;;;0.00;0.00;;;10.80;99.90;;;;;;6178264;23;20013;-92
2023/02/18 15:19:41;;;;;;;0.00;0.00;;;10.70;99.90;;;;;;6177140;23;20005;-92
2023/02/18 15:22:24;;;;;;;0.00;0.00;;;10.90;99.90;;;;;;6176948;23;20013;-92